createdAt,value
2022-11-16T00:00:50.852Z,21.10
2022-11-16T00:03:18.243Z,20.85
2022-11-16T00:05:45.717Z,21.63
2022-11-16T00:08:13.037Z,23.80
2022-11-16T00:10:41.786Z,19.45
2022-11-16T00:13:09.425Z,20.05
2022-11-16T00:15:36.800Z,22.95
2022-11-16T00:18:04.160Z,21.05
2022-11-16T00:20:31.552Z,21.85
2022-11-16T00:22:58.863Z,25.70
2022-11-16T00:25:26.178Z,22.77
2022-11-16T00:27:54.807Z,17.48
2022-11-16T00:30:22.102Z,22.30
2022-11-16T00:32:49.405Z,23.98
2022-11-16T00:35:16.762Z,25.85
2022-11-16T00:37:44.068Z,24.25
2022-11-16T00:40:12.259Z,23.25
2022-11-16T00:42:39.538Z,28.55
2022-11-16T00:45:08.986Z,28.88
2022-11-16T00:47:36.352Z,26.83
2022-11-16T00:50:03.655Z,27.98
2022-11-16T00:52:31.016Z,27.33
2022-11-16T00:54:58.317Z,31.00
2022-11-16T00:57:25.652Z,30.58
2022-11-16T00:59:52.943Z,29.55
2022-11-16T01:02:21.610Z,31.88
2022-11-16T01:04:48.925Z,37.72
2022-11-16T01:07:16.239Z,25.08
2022-11-16T01:09:43.565Z,35.38
2022-11-16T01:12:10.976Z,36.35
2022-11-16T01:14:38.318Z,38.42
2022-11-16T01:17:05.637Z,35.80
2022-11-16T01:19:34.605Z,38.05
2022-11-16T01:22:01.881Z,44.72
2022-11-16T01:24:29.276Z,41.03
2022-11-16T01:26:58.103Z,37.97
2022-11-16T01:29:25.399Z,37.47
2022-11-16T01:31:52.750Z,42.53
2022-11-16T01:34:20.088Z,39.92
2022-11-16T01:36:48.808Z,41.42
2022-11-16T01:39:16.546Z,36.15
2022-11-16T01:41:44.876Z,40.72
2022-11-16T01:44:27.126Z,34.83
2022-11-16T01:46:54.435Z,33.47
2022-11-16T01:49:23.175Z,33.47
2022-11-16T01:51:53.240Z,38.83
2022-11-16T01:54:20.900Z,29.83
2022-11-16T01:56:49.015Z,33.25
2022-11-16T01:59:17.280Z,33.75
2022-11-16T02:01:44.680Z,29.30
2022-11-16T02:04:12.580Z,34.55
2022-11-16T02:06:47.208Z,34.20
2022-11-16T02:09:40.864Z,38.03
2022-11-16T02:12:12.297Z,34.03
2022-11-16T02:14:48.063Z,32.95
2022-11-16T02:17:19.594Z,36.78
2022-11-16T02:20:04.904Z,31.35
2022-11-16T02:22:39.856Z,29.27
2022-11-16T02:25:10.368Z,31.80
2022-11-16T02:27:46.905Z,29.77
2022-11-16T02:30:15.613Z,40.90
2022-11-16T02:32:45.338Z,50.33
2022-11-16T02:35:13.856Z,48.22
2022-11-16T02:37:43.688Z,42.92
2022-11-16T02:40:13.088Z,37.00
2022-11-16T02:42:42.551Z,39.03
2022-11-16T02:45:12.269Z,36.38
2022-11-16T02:47:42.436Z,36.38
2022-11-16T02:50:11.595Z,32.30
2022-11-16T02:52:39.702Z,37.72
2022-11-16T02:55:07.767Z,36.13
2022-11-16T02:57:51.060Z,40.78
2022-11-16T03:00:20.879Z,36.80
2022-11-16T03:02:56.109Z,41.63
2022-11-16T03:05:31.792Z,41.40
2022-11-16T03:08:02.746Z,39.08
2022-11-16T03:10:47.632Z,40.40
2022-11-16T03:13:17.439Z,41.20
2022-11-16T03:15:44.837Z,37.00
2022-11-16T03:18:14.607Z,42.25
2022-11-16T03:20:43.627Z,40.13
2022-11-16T03:23:12.284Z,38.80
2022-11-16T03:25:40.869Z,34.90
2022-11-16T03:28:09.641Z,41.35
2022-11-16T03:30:39.391Z,34.40
2022-11-16T03:33:10.088Z,35.72
2022-11-16T03:35:40.038Z,34.95
2022-11-16T03:38:08.828Z,36.50
2022-11-16T03:40:37.502Z,34.70
2022-11-16T03:43:05.748Z,33.80
2022-11-16T03:45:33.447Z,30.65
2022-11-16T03:48:01.003Z,26.88
2022-11-16T03:50:28.359Z,33.35
2022-11-16T03:52:56.978Z,27.27
2022-11-16T03:55:24.515Z,24.75
2022-11-16T03:57:51.820Z,24.40
2022-11-16T04:00:19.310Z,19.02
2022-11-16T04:02:46.616Z,9.55
2022-11-16T04:05:31.582Z,9.32
2022-11-16T04:08:17.883Z,5.55
2022-11-16T04:11:03.178Z,6.43
2022-11-16T04:13:50.190Z,7.55
2022-11-16T04:16:31.605Z,5.10
2022-11-16T04:19:16.298Z,4.38
2022-11-16T04:22:03.521Z,2.65
2022-11-16T04:24:33.335Z,3.33
2022-11-16T04:27:19.353Z,2.15
2022-11-16T04:29:46.896Z,2.35
2022-11-16T04:32:31.507Z,2.45
2022-11-16T04:35:16.397Z,1.92
2022-11-16T04:37:49.710Z,1.50
2022-11-16T04:40:18.926Z,1.90
2022-11-16T04:42:50.428Z,2.95
2022-11-16T04:45:35.105Z,3.40
2022-11-16T04:48:02.609Z,1.88
2022-11-16T04:50:29.916Z,2.63
2022-11-16T04:52:57.244Z,1.75
2022-11-16T04:55:25.878Z,2.95
2022-11-16T04:57:53.415Z,1.70
2022-11-16T05:00:21.076Z,4.03
2022-11-16T05:02:48.628Z,3.22
2022-11-16T05:05:15.994Z,2.42
2022-11-16T05:07:43.442Z,2.88
2022-11-16T05:10:11.036Z,2.28
2022-11-16T05:12:39.697Z,3.40
2022-11-16T05:15:07.739Z,2.83
2022-11-16T05:17:35.160Z,2.47
2022-11-16T05:20:19.854Z,2.83
2022-11-16T05:22:52.959Z,4.22
2022-11-16T05:25:20.388Z,3.13
2022-11-16T05:27:49.060Z,2.38
2022-11-16T05:30:16.758Z,2.38
2022-11-16T05:32:44.129Z,4.80
2022-11-16T05:35:11.495Z,1.92
2022-11-16T05:37:38.930Z,2.38
2022-11-16T05:40:07.375Z,2.45
2022-11-16T05:42:34.760Z,3.08
2022-11-16T05:45:03.422Z,4.05
2022-11-16T05:47:30.785Z,2.90
2022-11-16T05:49:58.090Z,3.70
2022-11-16T05:52:25.395Z,3.00
2022-11-16T05:54:52.719Z,4.18
2022-11-16T05:57:19.985Z,4.80
2022-11-16T05:59:47.376Z,5.32
2022-11-16T06:02:15.966Z,4.68
2022-11-16T06:04:43.316Z,3.33
2022-11-16T06:07:10.640Z,4.50
2022-11-16T06:09:38.049Z,5.05
2022-11-16T06:12:05.776Z,5.03
2022-11-16T06:14:33.119Z,5.20
2022-11-16T06:17:00.439Z,6.57
2022-11-16T06:19:32.540Z,7.78
2022-11-16T06:22:00.186Z,5.75
2022-11-16T06:24:27.499Z,7.45
2022-11-16T06:26:54.798Z,6.50
2022-11-16T06:29:22.151Z,8.15
2022-11-16T06:31:49.492Z,7.70
2022-11-16T06:34:16.805Z,5.68
2022-11-16T06:36:45.423Z,9.20
2022-11-16T06:39:13.267Z,9.98
2022-11-16T06:41:41.613Z,9.32
2022-11-16T06:44:09.185Z,5.68
2022-11-16T06:46:36.516Z,9.43
2022-11-16T06:49:03.809Z,8.70
2022-11-16T06:51:31.179Z,8.10
2022-11-16T06:53:59.803Z,5.07
2022-11-16T06:56:27.163Z,7.70
2022-11-16T06:58:56.716Z,12.13
2022-11-16T07:01:24.129Z,11.18
2022-11-16T07:03:51.480Z,10.52
2022-11-16T07:06:18.958Z,6.22
2022-11-16T07:08:46.807Z,10.32
2022-11-16T07:11:15.532Z,10.90
2022-11-16T07:13:42.893Z,10.02
2022-11-16T07:16:10.857Z,8.85
2022-11-16T07:18:38.865Z,5.78
2022-11-16T07:21:06.843Z,16.17
2022-11-16T07:23:34.218Z,9.02
2022-11-16T07:26:01.728Z,5.55
2022-11-16T07:28:30.893Z,8.18
2022-11-16T07:31:01.888Z,4.25
2022-11-16T07:33:29.305Z,12.82
2022-11-16T07:36:01.107Z,9.20
2022-11-16T07:38:28.430Z,5.72
2022-11-16T07:41:00.088Z,6.68
2022-11-16T07:43:28.719Z,10.52
2022-11-16T07:46:21.363Z,6.25
2022-11-16T07:48:45.807Z,7.25
2022-11-16T07:51:14.573Z,5.55
2022-11-16T07:53:42.316Z,10.30
2022-11-16T07:56:09.859Z,10.70
2022-11-16T07:58:37.786Z,13.55
2022-11-16T08:01:06.893Z,14.50
2022-11-16T08:03:35.388Z,8.70
2022-11-16T08:06:03.542Z,4.40
2022-11-16T08:08:30.978Z,10.82
2022-11-16T08:11:00.201Z,5.53
2022-11-16T08:13:27.705Z,8.07
2022-11-16T08:15:55.112Z,7.40
2022-11-16T08:18:23.753Z,8.25
2022-11-16T08:20:51.045Z,6.32
2022-11-16T08:23:18.366Z,8.80
2022-11-16T08:25:45.655Z,5.15
2022-11-16T08:28:14.329Z,7.32
2022-11-16T08:30:41.947Z,10.23
2022-11-16T08:33:09.963Z,7.45
2022-11-16T08:35:38.652Z,11.68
2022-11-16T08:38:05.974Z,13.98
2022-11-16T08:40:33.336Z,16.48
2022-11-16T08:43:00.656Z,11.13
2022-11-16T08:45:27.930Z,7.03
2022-11-16T08:48:03.612Z,8.15
2022-11-16T08:50:33.573Z,6.03
2022-11-16T08:53:15.143Z,6.90
2022-11-16T08:55:42.600Z,7.15
2022-11-16T08:58:10.009Z,11.50
2022-11-16T09:00:38.104Z,8.45
2022-11-16T09:03:05.379Z,14.10
2022-11-16T09:05:32.658Z,8.18
2022-11-16T09:07:59.964Z,10.70
2022-11-16T09:10:28.568Z,13.65
2022-11-16T09:12:55.948Z,7.10
2022-11-16T09:15:23.309Z,8.02
2022-11-16T09:17:54.699Z,8.13
2022-11-16T09:20:22.017Z,5.22
2022-11-16T09:22:49.353Z,7.85
2022-11-16T09:25:18.912Z,5.88
2022-11-16T09:27:47.564Z,6.18
2022-11-16T09:30:15.461Z,8.40
2022-11-16T09:32:42.989Z,13.57
2022-11-16T09:35:10.675Z,12.80
2022-11-16T09:37:38.017Z,12.32
2022-11-16T09:40:05.764Z,7.85
2022-11-16T09:42:38.745Z,11.63
2022-11-16T09:45:14.625Z,14.32
2022-11-16T09:47:45.487Z,4.53
2022-11-16T09:50:19.094Z,15.50
2022-11-16T09:52:47.686Z,10.70
2022-11-16T09:55:21.074Z,9.15
2022-11-16T09:57:48.674Z,11.52
2022-11-16T10:00:20.414Z,8.85
2022-11-16T10:02:49.025Z,11.63
2022-11-16T10:05:19.419Z,12.10
2022-11-16T10:07:48.265Z,11.77
2022-11-16T10:10:16.610Z,13.32
2022-11-16T10:12:46.564Z,12.10
2022-11-16T10:15:23.416Z,8.98
2022-11-16T10:17:59.386Z,8.93
2022-11-16T10:20:38.657Z,6.80
2022-11-16T10:23:11.437Z,8.70
2022-11-16T10:25:43.428Z,9.07
2022-11-16T10:28:24.187Z,7.68
2022-11-16T10:30:57.249Z,5.75
2022-11-16T10:33:26.379Z,11.35
2022-11-16T10:35:54.058Z,13.07
2022-11-16T10:38:23.079Z,10.40
2022-11-16T10:40:52.515Z,8.00
2022-11-16T10:43:21.959Z,7.78
2022-11-16T10:45:52.747Z,5.57
2022-11-16T10:48:29.287Z,5.55
2022-11-16T10:50:56.917Z,7.18
2022-11-16T10:53:28.476Z,12.60
2022-11-16T10:56:02.895Z,7.05
2022-11-16T10:58:49.335Z,7.85
2022-11-16T11:01:27.908Z,13.00
2022-11-16T11:03:56.615Z,7.18
2022-11-16T11:06:25.219Z,10.48
2022-11-16T11:08:52.588Z,12.07
2022-11-16T11:11:39.308Z,7.28
2022-11-16T11:14:11.063Z,9.60
2022-11-16T11:16:39.122Z,7.85
2022-11-16T11:19:20.559Z,17.05
2022-11-16T11:21:47.996Z,12.20
2022-11-16T11:24:43.299Z,8.45
2022-11-16T11:27:04.597Z,5.20
2022-11-16T11:29:33.488Z,7.22
2022-11-16T11:32:01.758Z,4.65
2022-11-16T11:34:31.302Z,6.40
2022-11-16T11:37:00.668Z,3.85
2022-11-16T11:39:30.102Z,5.38
2022-11-16T11:42:05.042Z,5.22
2022-11-16T11:47:42.750Z,6.68
2022-11-16T11:49:58.306Z,3.90
2022-11-16T11:52:28.599Z,7.18
2022-11-16T11:54:56.641Z,8.05
2022-11-16T11:57:25.658Z,4.60
2022-11-16T11:59:54.808Z,8.93
2022-11-16T12:02:29.025Z,2.83
2022-11-16T12:05:12.487Z,3.13
2022-11-16T12:07:48.720Z,4.57
2022-11-16T12:10:19.877Z,4.20
2022-11-16T12:12:54.868Z,4.03
2022-11-16T12:15:32.583Z,7.28
2022-11-16T12:18:07.808Z,2.72
2022-11-16T12:20:41.810Z,7.28
2022-11-16T12:23:20.762Z,4.73
2022-11-16T12:25:51.306Z,5.32
2022-11-16T12:28:24.811Z,4.35
2022-11-16T12:30:58.462Z,10.02
2022-11-16T12:33:29.939Z,5.43
2022-11-16T12:36:01.832Z,6.25
2022-11-16T12:38:47.615Z,3.78
2022-11-16T12:41:23.823Z,3.22
2022-11-16T12:43:56.408Z,6.70
2022-11-16T12:46:26.258Z,3.95
2022-11-16T12:49:03.016Z,6.20
2022-11-16T12:51:39.955Z,3.80
2022-11-16T12:54:22.233Z,3.17
2022-11-16T12:56:54.190Z,5.15
2022-11-16T12:59:27.169Z,2.58
2022-11-16T13:02:00.625Z,2.90
2022-11-16T13:04:31.019Z,4.00
2022-11-16T13:07:09.347Z,5.10
2022-11-16T13:09:39.642Z,4.70
2022-11-16T13:12:13.969Z,3.83
2022-11-16T13:14:43.054Z,4.60
2022-11-16T13:17:15.207Z,3.42
2022-11-16T13:19:45.108Z,7.30
2022-11-16T13:22:17.758Z,3.67
2022-11-16T13:24:47.835Z,7.50
2022-11-16T13:27:24.065Z,7.00
2022-11-16T13:29:54.023Z,3.60
2022-11-16T13:32:26.692Z,4.88
2022-11-16T13:34:54.340Z,5.63
2022-11-16T13:37:40.191Z,6.85
2022-11-16T13:40:20.492Z,4.07
2022-11-16T13:42:59.147Z,3.65
2022-11-16T13:45:27.336Z,4.03
2022-11-16T13:47:56.222Z,3.28
2022-11-16T13:50:25.006Z,4.97
2022-11-16T13:53:51.326Z,4.45
2022-11-16T13:55:46.080Z,3.55
2022-11-16T13:58:20.749Z,4.05
2022-11-16T14:00:56.466Z,3.30
2022-11-16T14:03:39.162Z,4.25
2022-11-16T14:06:07.840Z,3.97
2022-11-16T14:08:48.914Z,3.92
2022-11-16T14:11:30.848Z,4.30
2022-11-16T14:14:01.028Z,3.50
2022-11-16T14:16:55.547Z,7.65
2022-11-16T14:19:41.434Z,10.13
2022-11-16T14:22:13.332Z,4.57
2022-11-16T14:24:41.934Z,4.18
2022-11-16T14:27:15.887Z,4.07
2022-11-16T14:29:50.470Z,7.27
2022-11-16T14:32:22.593Z,4.13
2022-11-16T14:34:51.332Z,6.32
2022-11-16T14:37:29.520Z,4.80
2022-11-16T14:40:01.991Z,4.38
2022-11-16T14:42:42.964Z,5.07
2022-11-16T14:45:21.705Z,4.18
2022-11-16T14:47:49.219Z,5.60
2022-11-16T14:50:20.301Z,9.48
2022-11-16T14:52:49.206Z,7.45
2022-11-16T14:55:19.126Z,11.02
2022-11-16T14:57:47.807Z,4.90
2022-11-16T15:00:20.328Z,5.10
2022-11-16T15:02:51.745Z,6.75
2022-11-16T15:05:21.689Z,6.13
2022-11-16T15:07:50.831Z,8.80
2022-11-16T15:10:20.152Z,6.40
2022-11-16T15:12:52.216Z,7.18
2022-11-16T15:15:21.416Z,8.60
2022-11-16T15:17:53.178Z,7.35
2022-11-16T15:20:21.604Z,3.72
2022-11-16T15:22:51.407Z,5.32
2022-11-16T15:25:26.327Z,6.90
2022-11-16T15:30:23.302Z,4.15
2022-11-16T15:32:51.506Z,9.00
2022-11-16T15:35:20.745Z,6.07
2022-11-16T15:37:48.258Z,6.07
2022-11-16T15:40:15.664Z,6.03
2022-11-16T15:42:43.132Z,6.28
2022-11-16T15:45:17.608Z,7.32
2022-11-16T15:47:47.065Z,3.90
2022-11-16T15:50:16.811Z,9.95
2022-11-16T15:52:45.721Z,4.55
2022-11-16T15:55:23.720Z,6.95
2022-11-16T15:58:01.639Z,5.57
2022-11-16T16:00:29.656Z,6.60
2022-11-16T16:03:02.186Z,7.05
2022-11-16T16:05:36.713Z,11.88
2022-11-16T16:08:05.477Z,6.10
2022-11-16T16:10:32.834Z,5.15
2022-11-16T16:13:00.956Z,9.18
2022-11-16T16:15:29.800Z,5.05
2022-11-16T16:17:57.594Z,7.90
2022-11-16T16:20:28.257Z,5.13
2022-11-16T16:23:05.739Z,3.88
2022-11-16T16:25:34.185Z,5.40
2022-11-16T16:28:01.616Z,7.80
2022-11-16T16:30:29.465Z,7.10
2022-11-16T16:32:56.908Z,6.82
2022-11-16T16:35:25.971Z,6.57
2022-11-16T16:37:57.664Z,3.70
2022-11-16T16:40:25.171Z,4.60
2022-11-16T16:42:53.172Z,4.25
2022-11-16T16:45:22.067Z,2.08
2022-11-16T16:47:49.386Z,5.28
2022-11-16T16:50:17.112Z,4.40
2022-11-16T16:52:46.108Z,3.45
2022-11-16T16:55:13.469Z,6.07
2022-11-16T16:57:40.770Z,2.47
2022-11-16T17:00:10.461Z,3.33
2022-11-16T17:02:37.882Z,3.60
2022-11-16T17:05:05.449Z,4.85
2022-11-16T17:07:32.924Z,5.93
2022-11-16T17:10:01.634Z,2.50
2022-11-16T17:12:28.937Z,5.43
2022-11-16T17:14:56.292Z,5.82
2022-11-16T17:17:24.649Z,5.32
2022-11-16T17:19:52.049Z,9.52
2022-11-16T17:22:19.883Z,5.10
2022-11-16T17:24:47.342Z,9.45
2022-11-16T17:27:15.999Z,6.03
2022-11-16T17:29:43.332Z,5.95
2022-11-16T17:32:10.740Z,5.75
2022-11-16T17:34:39.879Z,5.53
2022-11-16T17:37:07.151Z,6.15
2022-11-16T17:39:34.723Z,4.40
2022-11-16T17:42:02.026Z,7.70
2022-11-16T17:44:30.680Z,5.28
2022-11-16T17:46:57.964Z,6.78
2022-11-16T17:49:25.344Z,6.40
2022-11-16T17:51:52.678Z,4.80
2022-11-16T17:54:19.981Z,6.32
2022-11-16T17:56:47.325Z,5.32
2022-11-16T17:59:14.612Z,7.25
2022-11-16T18:01:43.342Z,8.07
2022-11-16T18:04:10.646Z,5.85
2022-11-16T18:06:38.078Z,7.35
2022-11-16T18:09:05.355Z,6.88
2022-11-16T18:11:32.850Z,6.13
2022-11-16T18:14:01.391Z,10.52
2022-11-16T18:16:30.452Z,8.80
2022-11-16T18:19:00.001Z,6.43
2022-11-16T18:21:27.538Z,11.75
2022-11-16T18:23:55.244Z,11.50
2022-11-16T18:26:23.913Z,9.45
2022-11-16T18:28:51.767Z,12.02
2022-11-16T18:31:20.524Z,9.50
2022-11-16T18:33:48.955Z,12.73
2022-11-16T18:36:18.380Z,9.75
2022-11-16T18:38:45.676Z,12.00
2022-11-16T18:41:19.375Z,6.97
2022-11-16T18:43:50.081Z,9.55
2022-11-16T18:46:17.610Z,8.82
2022-11-16T18:48:46.817Z,8.15
2022-11-16T18:51:16.669Z,9.45
2022-11-16T18:53:45.701Z,10.25
2022-11-16T18:56:13.059Z,9.82
2022-11-16T18:58:50.362Z,12.55
2022-11-16T19:01:19.848Z,10.05
2022-11-16T19:03:47.483Z,7.47
2022-11-16T19:06:17.368Z,10.63
2022-11-16T19:08:50.420Z,9.20
2022-11-16T19:11:21.359Z,8.35
2022-11-16T19:13:52.334Z,11.10
2022-11-16T19:16:19.640Z,11.88
2022-11-16T19:18:46.973Z,10.70
2022-11-16T19:21:15.438Z,9.07
2022-11-16T19:23:44.303Z,10.73
2022-11-16T19:26:13.669Z,9.18
2022-11-16T19:28:41.774Z,7.00
2022-11-16T19:31:09.444Z,9.10
2022-11-16T19:33:37.226Z,10.32
2022-11-16T19:36:08.592Z,10.15
2022-11-16T19:38:35.993Z,10.82
2022-11-16T19:41:03.346Z,8.27
2022-11-16T19:43:32.385Z,10.10
2022-11-16T19:46:02.607Z,11.80
2022-11-16T19:48:30.577Z,8.05
2022-11-16T19:50:57.900Z,9.98
2022-11-16T19:53:25.201Z,10.98
2022-11-16T19:55:55.453Z,9.45
2022-11-16T19:58:22.759Z,5.38
2022-11-16T20:00:51.490Z,10.85
2022-11-16T20:03:18.892Z,7.00
2022-11-16T20:05:46.202Z,12.90
2022-11-16T20:08:13.508Z,10.35
2022-11-16T20:10:40.772Z,7.22
2022-11-16T20:13:08.127Z,8.45
2022-11-16T20:15:35.430Z,12.32
2022-11-16T20:18:04.121Z,10.15
2022-11-16T20:20:32.680Z,7.15
2022-11-16T20:22:59.968Z,6.78
2022-11-16T20:25:27.378Z,10.45
2022-11-16T20:27:54.731Z,6.53
2022-11-16T20:30:22.060Z,7.53
2022-11-16T20:32:49.460Z,6.85
2022-11-16T20:35:19.275Z,9.98
2022-11-16T20:37:46.730Z,11.00
2022-11-16T20:40:14.613Z,8.07
2022-11-16T20:42:41.899Z,12.50
2022-11-16T20:45:10.074Z,8.13
2022-11-16T20:47:37.379Z,6.70
2022-11-16T20:50:05.062Z,8.43
2022-11-16T20:52:38.192Z,7.43
2022-11-16T20:55:08.927Z,8.85
2022-11-16T20:57:36.295Z,5.82
2022-11-16T21:00:04.907Z,6.80
2022-11-16T21:02:32.315Z,8.70
2022-11-16T21:05:00.615Z,7.03
2022-11-16T21:07:28.127Z,11.68
2022-11-16T21:10:14.546Z,9.40
2022-11-16T21:12:59.469Z,9.43
2022-11-16T21:15:26.769Z,9.20
2022-11-16T21:17:54.137Z,10.30
2022-11-16T21:20:27.533Z,12.20
2022-11-16T21:22:55.390Z,13.93
2022-11-16T21:25:24.064Z,8.70
2022-11-16T21:27:51.411Z,7.82
2022-11-16T21:30:18.784Z,9.10
2022-11-16T21:32:46.113Z,10.10
2022-11-16T21:35:13.751Z,11.35
2022-11-16T21:37:41.056Z,5.72
2022-11-16T21:40:09.059Z,8.57
2022-11-16T21:42:37.679Z,6.95
2022-11-16T21:45:05.262Z,11.38
2022-11-16T21:47:32.548Z,12.18
2022-11-16T21:50:29.943Z,9.38
2022-11-16T21:52:47.232Z,8.20
2022-11-16T21:55:14.593Z,11.05
2022-11-16T21:57:43.424Z,9.15
2022-11-16T22:00:11.522Z,12.20
2022-11-16T22:02:38.828Z,5.78
2022-11-16T22:05:24.266Z,10.07
2022-11-16T22:07:51.567Z,9.35
2022-11-16T22:10:18.858Z,10.10
2022-11-16T22:12:47.556Z,11.95
2022-11-16T22:15:14.872Z,7.80
2022-11-16T22:17:42.712Z,7.00
2022-11-16T22:20:10.433Z,10.70
2022-11-16T22:22:37.769Z,6.80
2022-11-16T22:25:05.623Z,6.55
2022-11-16T22:27:38.574Z,6.80
2022-11-16T22:30:21.024Z,12.63
2022-11-16T22:32:48.401Z,7.10
2022-11-16T22:35:15.741Z,8.25
2022-11-16T22:37:43.084Z,11.48
2022-11-16T22:40:14.965Z,10.68
2022-11-16T22:42:44.821Z,12.40
2022-11-16T22:45:12.142Z,8.18
2022-11-16T22:47:40.771Z,8.75
2022-11-16T22:50:08.280Z,17.60
2022-11-16T22:52:35.562Z,8.25
2022-11-16T22:55:03.073Z,12.35
2022-11-16T22:57:30.371Z,7.22
2022-11-16T22:59:57.657Z,9.93
2022-11-16T23:02:24.976Z,8.25
2022-11-16T23:04:53.588Z,9.20
2022-11-16T23:07:20.972Z,7.93
2022-11-16T23:09:48.320Z,8.20
2022-11-16T23:12:33.012Z,9.73
2022-11-16T23:15:17.975Z,12.35
2022-11-16T23:17:46.020Z,10.70
2022-11-16T23:20:32.198Z,6.55
2022-11-16T23:23:17.233Z,7.70
2022-11-16T23:26:01.870Z,8.43
2022-11-16T23:28:29.203Z,8.68
2022-11-16T23:30:56.666Z,10.88
2022-11-16T23:33:43.673Z,8.45
2022-11-16T23:36:12.679Z,6.85
2022-11-16T23:38:40.146Z,5.88
2022-11-16T23:41:21.753Z,14.40
2022-11-16T23:44:00.999Z,10.15
2022-11-16T23:46:29.024Z,5.90
2022-11-16T23:48:56.546Z,7.72
2022-11-16T23:51:25.447Z,9.02
2022-11-16T23:53:53.136Z,7.22
2022-11-16T23:56:20.471Z,10.60
2022-11-16T23:58:47.853Z,7.90
